KRDM/RDM METAR and TAF weather

Enter ICAO airport designator
Station Type Date Time Source
KRDM METAR 2021/04/17 01:56 UTC NOAA

KRDM 170156Z 02016G21KT 10SM CLR 18/M06 A3013 RMK AO2 SLP207 T01781056


Station Type Date Time Source
KRDM Decoded METAR 2021/04/17 01:56 UTC NOAA

REDMOND ROBERTS FIELD, OR, United States (KRDM) 44-15N 121-08W
Apr 16, 2021 - 09:56 PM EDT / 2021.04.17 0156 UTC
Wind: from the NNE (020 degrees) at 18 MPH (16 KT) gusting to 24 MPH (21 KT):0
Visibility: 10 mile(s):0
Sky conditions: clear
Temperature: 64.0 F (17.8 C)
Dew Point: 21.9 F (-5.6 C)
Relative Humidity: 19%
Pressure (altimeter): 30.13 in. Hg (1020 hPa)
ob: KRDM 170156Z 02016G21KT 10SM CLR 18/M06 A3013 RMK AO2 SLP207 T01781056
cycle: 2

Station Type Date Time Source
KRDM TAF 2021/04/16 21:57 UTC NOAA

TAF
AMD KRDM 162055Z 1621/1718 36011KT P6SM SKC
FM170400 VRB05KT P6SM SKC

Example: see airport list